Time;durP1;ratioP1;P1;durP2;ratioP2;P2;SDS_P1;SDS_P2;PMS_P1;PMS_P2;Temp;Humidity;BMP_temperature;BMP_pressure;BME280_temperature;BME280_humidity;BME280_pressure;Samples;Min_cycle;Max_cycle;Signal;HPM_P1;HPM_P2
2022/01/14 00:02:15;;;;;;;16.33;6.82;;;;;;;;;;5033439;28;20025;-84
2022/01/14 00:04:41;;;;;;;13.05;5.72;;;;;;;;;;5015194;28;20485;-81
2022/01/14 00:07:07;;;;;;;18.00;6.70;;;;;;;;;;5033034;28;20473;-85
2022/01/14 00:09:35;;;;;;;14.90;7.22;;;;;;;;;;5015316;28;20028;-83
2022/01/14 00:12:04;;;;;;;28.00;11.73;;;;;;;;;;5032155;28;20052;-84
2022/01/14 00:14:42;;;;;;;14.90;8.30;;;;;;;;;;5025232;28;20120;-82
2022/01/14 00:17:11;;;;;;;16.63;7.55;;;;;;;;;;5015379;28;20037;-82
2022/01/14 00:19:37;;;;;;;12.73;7.05;;;;;;;;;;5032777;28;20029;-84
2022/01/14 00:22:09;;;;;;;19.92;9.40;;;;;;;;;;5015259;28;20025;-81
2022/01/14 00:33:09;;;;;;;10.73;6.38;;;;;;;;;;5032306;28;20124;-82
2022/01/14 00:35:42;;;;;;;9.75;5.22;;;;;;;;;;5015297;28;20401;-85
2022/01/14 00:38:09;;;;;;;11.82;5.75;;;;;;;;;;5032578;28;20045;-85
2022/01/14 00:40:35;;;;;;;9.65;5.15;;;;;;;;;;5032980;28;20053;-83
2022/01/14 00:43:01;;;;;;;16.33;7.45;;;;;;;;;;5032299;28;20446;-85
2022/01/14 00:45:27;;;;;;;14.60;7.18;;;;;;;;;;5032716;28;20057;-85
2022/01/14 00:47:53;;;;;;;15.48;6.13;;;;;;;;;;5014469;28;20172;-86
2022/01/14 00:50:19;;;;;;;11.30;5.22;;;;;;;;;;5014504;28;20048;-86
2022/01/14 00:52:46;;;;;;;8.75;4.88;;;;;;;;;;5014637;28;20040;-85
2022/01/14 00:55:14;;;;;;;16.75;8.30;;;;;;;;;;5014338;28;20028;-84
2022/01/14 01:00:30;;;;;;;9.40;7.10;;;;;;;;;;5027321;28;20055;-85
2022/01/14 01:02:56;;;;;;;11.82;5.43;;;;;;;;;;5014358;28;20036;-83
2022/01/14 01:05:21;;;;;;;15.02;7.68;;;;;;;;;;5014495;28;20037;-83
2022/01/14 01:07:57;;;;;;;21.95;8.38;;;;;;;;;;5023116;28;20034;-82
2022/01/14 01:10:24;;;;;;;11.68;5.95;;;;;;;;;;5032387;28;20488;-84
2022/01/14 01:12:57;;;;;;;22.48;10.85;;;;;;;;;;5014343;28;20040;-85
2022/01/14 01:15:23;;;;;;;12.95;5.72;;;;;;;;;;5019408;28;20083;-83
2022/01/14 01:17:49;;;;;;;13.10;5.95;;;;;;;;;;5013812;28;20041;-86
2022/01/14 01:20:18;;;;;;;12.02;5.95;;;;;;;;;;5014107;28;20021;-82
2022/01/14 01:22:48;;;;;;;13.77;5.55;;;;;;;;;;5014082;28;20073;-85
2022/01/14 01:25:16;;;;;;;17.08;6.25;;;;;;;;;;5030699;28;20021;-85
2022/01/14 01:27:44;;;;;;;16.08;7.50;;;;;;;;;;5031727;28;20025;-83
2022/01/14 01:32:59;;;;;;;8.63;4.38;;;;;;;;;;5032494;28;20087;-82
2022/01/14 01:35:25;;;;;;;17.65;6.45;;;;;;;;;;5031424;28;20033;-83
2022/01/14 01:37:51;;;;;;;8.95;4.35;;;;;;;;;;5031867;28;20493;-82
2022/01/14 01:40:19;;;;;;;19.88;10.73;;;;;;;;;;5013919;28;20048;-83
2022/01/14 01:42:45;;;;;;;9.45;5.57;;;;;;;;;;5031736;28;20033;-82
2022/01/14 01:45:14;;;;;;;9.48;4.00;;;;;;;;;;5031496;28;20044;-81
2022/01/14 01:47:41;;;;;;;16.80;7.10;;;;;;;;;;5029905;28;20021;-84
2022/01/14 01:50:10;;;;;;;10.50;4.65;;;;;;;;;;5013938;28;20515;-83
2022/01/14 01:52:35;;;;;;;11.55;5.45;;;;;;;;;;5013276;28;20034;-82
2022/01/14 01:55:01;;;;;;;11.10;5.18;;;;;;;;;;5030378;28;20029;-83
2022/01/14 01:57:26;;;;;;;13.52;5.28;;;;;;;;;;5013868;28;20067;-83
2022/01/14 01:59:52;;;;;;;12.35;4.63;;;;;;;;;;5013762;28;20034;-83
2022/01/14 02:02:17;;;;;;;7.40;4.40;;;;;;;;;;5013608;28;20036;-82
2022/01/14 02:04:43;;;;;;;17.25;8.73;;;;;;;;;;5013744;28;20033;-85
2022/01/14 02:07:09;;;;;;;15.07;6.45;;;;;;;;;;5031814;28;20037;-84
2022/01/14 02:09:34;;;;;;;13.70;5.85;;;;;;;;;;5013539;28;20393;-82
2022/01/14 02:12:05;;;;;;;10.20;3.85;;;;;;;;;;5009482;28;20021;-87
2022/01/14 02:22:55;;;;;;;11.00;4.50;;;;;;;;;;5034888;28;20056;-86
2022/01/14 02:25:28;;;;;;;7.22;3.88;;;;;;;;;;5035045;28;20036;-86
2022/01/14 02:28:17;;;;;;;8.10;4.00;;;;;;;;;;5017236;28;20481;-83
2022/01/14 02:30:45;;;;;;;7.60;4.03;;;;;;;;;;5015047;28;20125;-84
2022/01/14 02:33:13;;;;;;;10.40;4.63;;;;;;;;;;5029917;28;20443;-85
2022/01/14 02:35:40;;;;;;;11.57;5.70;;;;;;;;;;5034721;28;20131;-82
2022/01/14 02:38:08;;;;;;;12.25;6.25;;;;;;;;;;5017062;28;20527;-86
2022/01/14 02:40:34;;;;;;;10.82;4.25;;;;;;;;;;5035062;28;20366;-85
2022/01/14 02:43:01;;;;;;;12.02;6.07;;;;;;;;;;5034288;28;20029;-84
2022/01/14 02:45:33;;;;;;;9.93;5.50;;;;;;;;;;5017065;28;20022;-81
2022/01/14 02:48:00;;;;;;;13.07;5.60;;;;;;;;;;5016254;28;20030;-81
2022/01/14 02:50:27;;;;;;;12.07;5.63;;;;;;;;;;5034544;28;20111;-83
2022/01/14 02:52:57;;;;;;;11.85;4.50;;;;;;;;;;5034286;28;20469;-81
2022/01/14 02:55:29;;;;;;;12.90;4.70;;;;;;;;;;5030859;28;20037;-83
2022/01/14 02:57:57;;;;;;;7.60;3.97;;;;;;;;;;5030780;28;20486;-84
2022/01/14 03:00:31;;;;;;;9.38;4.65;;;;;;;;;;5020747;28;20095;-81
2022/01/14 03:02:59;;;;;;;15.60;7.10;;;;;;;;;;5032247;28;20028;-83
2022/01/14 03:05:27;;;;;;;7.90;4.38;;;;;;;;;;5030452;28;20033;-81
2022/01/14 03:07:53;;;;;;;11.35;5.88;;;;;;;;;;5033773;28;20041;-85
2022/01/14 03:10:19;;;;;;;12.20;5.00;;;;;;;;;;5034389;28;20021;-86
2022/01/14 03:12:45;;;;;;;13.07;4.97;;;;;;;;;;5034133;28;20032;-83
2022/01/14 03:15:11;;;;;;;13.63;5.70;;;;;;;;;;5033770;28;20075;-84
2022/01/14 03:17:37;;;;;;;10.70;5.15;;;;;;;;;;5016396;28;20036;-85
2022/01/14 03:20:04;;;;;;;7.68;4.55;;;;;;;;;;5016058;28;20037;-87
2022/01/14 03:22:36;;;;;;;10.10;4.50;;;;;;;;;;5034095;28;20102;-83
2022/01/14 03:27:51;;;;;;;9.15;5.65;;;;;;;;;;5032647;28;20095;-84
2022/01/14 03:30:17;;;;;;;13.02;5.72;;;;;;;;;;5033617;28;20052;-83
2022/01/14 03:32:43;;;;;;;14.73;5.80;;;;;;;;;;5034225;28;20030;-85
2022/01/14 03:35:10;;;;;;;10.15;3.78;;;;;;;;;;5016060;28;20037;-83
2022/01/14 03:37:36;;;;;;;10.02;4.05;;;;;;;;;;5033736;28;20079;-84
2022/01/14 03:40:04;;;;;;;12.10;6.55;;;;;;;;;;5034076;28;20037;-82
2022/01/14 03:42:30;;;;;;;7.70;4.40;;;;;;;;;;5023788;28;20033;-83
2022/01/14 03:44:56;;;;;;;9.68;4.18;;;;;;;;;;5033615;28;20052;-82
2022/01/14 03:47:21;;;;;;;7.78;4.75;;;;;;;;;;5033425;28;20037;-84
2022/01/14 03:49:47;;;;;;;11.13;5.05;;;;;;;;;;5016039;28;20477;-83
2022/01/14 03:52:14;;;;;;;12.57;5.38;;;;;;;;;;5033169;28;20079;-82
2022/01/14 03:54:39;;;;;;;8.93;4.28;;;;;;;;;;5015378;28;20029;-83
2022/01/14 03:57:05;;;;;;;7.15;3.95;;;;;;;;;;5033582;28;20527;-79
2022/01/14 03:59:31;;;;;;;11.52;5.20;;;;;;;;;;5033173;28;20038;-81
2022/01/14 04:01:56;;;;;;;12.45;6.07;;;;;;;;;;5033158;28;20025;-82
2022/01/14 04:04:22;;;;;;;14.45;7.35;;;;;;;;;;5015356;28;20017;-82
2022/01/14 04:06:47;;;;;;;5.47;3.25;;;;;;;;;;5015698;28;20493;-83
2022/01/14 04:09:13;;;;;;;13.75;7.93;;;;;;;;;;5033313;28;20104;-87
2022/01/14 04:11:39;;;;;;;11.15;4.10;;;;;;;;;;5032605;28;20070;-83
2022/01/14 04:15:36;;;;;;;6.88;3.80;;;;;;;;;;5015242;28;20366;-83
2022/01/14 04:16:53;;;;;;;7.38;3.22;;;;;;;;;;5032675;28;20087;-83
2022/01/14 04:19:19;;;;;;;7.28;4.15;;;;;;;;;;5015093;28;20037;-84
2022/01/14 04:21:44;;;;;;;21.48;8.73;;;;;;;;;;5032584;28;20044;-83
2022/01/14 04:24:10;;;;;;;11.90;4.80;;;;;;;;;;5014790;28;20080;-82
2022/01/14 04:26:36;;;;;;;10.75;5.35;;;;;;;;;;5032667;28;20052;-81
2022/01/14 04:29:01;;;;;;;12.05;5.70;;;;;;;;;;5032837;28;20485;-84
2022/01/14 04:31:27;;;;;;;5.75;3.30;;;;;;;;;;5032950;28;20025;-84
2022/01/14 04:33:52;;;;;;;14.00;6.10;;;;;;;;;;5032398;28;20037;-83
2022/01/14 04:36:18;;;;;;;13.00;6.72;;;;;;;;;;5032952;28;20422;-82
2022/01/14 04:38:43;;;;;;;17.52;6.93;;;;;;;;;;5011968;28;20033;-81
2022/01/14 04:41:09;;;;;;;17.67;7.22;;;;;;;;;;5014341;28;20022;-82
2022/01/14 04:43:35;;;;;;;18.85;7.68;;;;;;;;;;5030697;28;20147;-85
2022/01/14 04:46:12;;;;;;;16.38;6.32;;;;;;;;;;5032382;28;20029;-82
2022/01/14 04:48:39;;;;;;;18.20;6.97;;;;;;;;;;5029857;28;20071;-84
2022/01/14 04:51:07;;;;;;;20.63;7.63;;;;;;;;;;5014547;28;20044;-85
2022/01/14 04:53:34;;;;;;;11.57;6.13;;;;;;;;;;5029210;28;20026;-84
2022/01/14 04:56:00;;;;;;;14.30;7.38;;;;;;;;;;5032314;28;20116;-82
2022/01/14 04:58:27;;;;;;;12.30;5.82;;;;;;;;;;5014766;28;20061;-84
2022/01/14 05:00:53;;;;;;;16.60;8.48;;;;;;;;;;5009179;28;20037;-84
2022/01/14 05:03:19;;;;;;;16.45;7.47;;;;;;;;;;5026989;28;20432;-85
2022/01/14 05:05:48;;;;;;;14.05;7.15;;;;;;;;;;5032189;28;20021;-82
2022/01/14 05:08:47;;;;;;;14.97;6.40;;;;;;;;;;5032502;28;20029;-83
2022/01/14 05:11:23;;;;;;;11.70;6.55;;;;;;;;;;5028102;28;20418;-84
2022/01/14 05:13:49;;;;;;;16.00;7.50;;;;;;;;;;5032086;28;20033;-84
2022/01/14 05:16:15;;;;;;;20.63;8.02;;;;;;;;;;5032022;28;20044;-84
2022/01/14 05:18:40;;;;;;;20.05;6.43;;;;;;;;;;5009199;28;20041;-84
2022/01/14 05:21:06;;;;;;;12.65;6.38;;;;;;;;;;5028284;28;20061;-82
2022/01/14 05:23:32;;;;;;;22.70;8.13;;;;;;;;;;5010530;28;20103;-84
2022/01/14 05:25:57;;;;;;;19.48;8.90;;;;;;;;;;5026104;28;20049;-81
2022/01/14 05:28:23;;;;;;;14.32;7.95;;;;;;;;;;5011711;28;20021;-85
2022/01/14 05:30:49;;;;;;;13.65;6.82;;;;;;;;;;5013251;28;20048;-85
2022/01/14 05:33:15;;;;;;;24.80;9.82;;;;;;;;;;5025482;28;20025;-84
2022/01/14 05:35:42;;;;;;;19.58;6.90;;;;;;;;;;5010298;28;20027;-84
2022/01/14 05:38:08;;;;;;;13.82;6.53;;;;;;;;;;5013755;28;20505;-84
2022/01/14 05:40:33;;;;;;;15.50;7.38;;;;;;;;;;5014039;28;20455;-84
2022/01/14 05:42:59;;;;;;;14.35;5.93;;;;;;;;;;5031906;28;20025;-84
2022/01/14 05:45:25;;;;;;;15.95;7.40;;;;;;;;;;5031758;28;20026;-88
2022/01/14 05:47:50;;;;;;;15.82;7.18;;;;;;;;;;5031918;28;20029;-84
2022/01/14 05:50:18;;;;;;;8.15;4.22;;;;;;;;;;5031276;28;20025;-83
2022/01/14 05:52:44;;;;;;;5.10;3.28;;;;;;;;;;5031387;28;20032;-83
2022/01/14 05:55:13;;;;;;;8.40;4.68;;;;;;;;;;5031539;28;20029;-87
2022/01/14 05:57:39;;;;;;;5.18;3.08;;;;;;;;;;5012268;28;20426;-84
2022/01/14 06:00:07;;;;;;;9.13;3.95;;;;;;;;;;5013772;28;20060;-84
2022/01/14 06:02:32;;;;;;;8.85;4.28;;;;;;;;;;5013598;28;20033;-86
2022/01/14 06:04:58;;;;;;;6.60;3.72;;;;;;;;;;5013583;28;20041;-84
2022/01/14 06:07:23;;;;;;;11.25;4.40;;;;;;;;;;5029032;28;20032;-85
2022/01/14 06:09:48;;;;;;;12.93;6.75;;;;;;;;;;5013475;28;20543;-83
2022/01/14 06:12:15;;;;;;;19.63;8.10;;;;;;;;;;5013702;28;20022;-83
2022/01/14 06:14:40;;;;;;;18.67;7.43;;;;;;;;;;5013225;28;20120;-83
2022/01/14 06:17:06;;;;;;;17.88;8.60;;;;;;;;;;5013754;28;20104;-81
2022/01/14 06:19:31;;;;;;;22.40;8.68;;;;;;;;;;5013756;28;20029;-84
2022/01/14 06:21:57;;;;;;;20.77;10.30;;;;;;;;;;5013723;28;20025;-85
2022/01/14 06:24:23;;;;;;;17.77;10.32;;;;;;;;;;5031688;28;20048;-82
2022/01/14 06:26:49;;;;;;;20.83;9.57;;;;;;;;;;5031114;28;20033;-83
2022/01/14 06:29:14;;;;;;;23.20;11.13;;;;;;;;;;5013867;28;20359;-85
2022/01/14 06:31:40;;;;;;;22.23;9.77;;;;;;;;;;5025799;28;20486;-85
2022/01/14 06:34:05;;;;;;;25.17;10.85;;;;;;;;;;5031044;28;20025;-83
2022/01/14 06:36:31;;;;;;;18.95;10.40;;;;;;;;;;5031327;28;20022;-84
2022/01/14 06:38:56;;;;;;;23.05;10.27;;;;;;;;;;5031345;28;20045;-84
2022/01/14 06:41:22;;;;;;;21.15;9.77;;;;;;;;;;5013580;28;20462;-87
2022/01/14 06:43:47;;;;;;;15.32;7.97;;;;;;;;;;5031251;28;20033;-87
2022/01/14 06:46:13;;;;;;;18.98;9.77;;;;;;;;;;5029859;28;20079;-86
2022/01/14 06:48:39;;;;;;;25.23;11.05;;;;;;;;;;5031598;28;20048;-87
2022/01/14 06:51:04;;;;;;;27.60;12.25;;;;;;;;;;5021710;28;20033;-83
2022/01/14 06:53:30;;;;;;;23.38;10.63;;;;;;;;;;5023074;28;20029;-85
2022/01/14 06:55:55;;;;;;;24.48;10.23;;;;;;;;;;5027178;28;20484;-86
2022/01/14 06:58:20;;;;;;;45.65;21.30;;;;;;;;;;5027999;28;20049;-86
2022/01/14 07:00:46;;;;;;;79.03;33.30;;;;;;;;;;5013421;28;20041;-87
2022/01/14 07:03:11;;;;;;;23.35;11.95;;;;;;;;;;5015785;28;20022;-86
2022/01/14 07:05:37;;;;;;;17.73;9.80;;;;;;;;;;5034678;28;20034;-85
2022/01/14 07:08:03;;;;;;;21.83;11.10;;;;;;;;;;5016352;28;20024;-84
2022/01/14 07:10:28;;;;;;;18.00;9.10;;;;;;;;;;5034625;28;20385;-83
2022/01/14 07:12:54;;;;;;;16.92;8.43;;;;;;;;;;5034016;28;20071;-79
2022/01/14 07:15:21;;;;;;;17.55;10.50;;;;;;;;;;5034256;28;20389;-88
2022/01/14 07:17:47;;;;;;;20.90;10.65;;;;;;;;;;5034628;28;20436;-84
2022/01/14 07:20:14;;;;;;;22.50;10.27;;;;;;;;;;5034089;28;20099;-83
2022/01/14 07:22:42;;;;;;;22.80;10.98;;;;;;;;;;5034044;28;20049;-82
2022/01/14 07:25:09;;;;;;;26.80;11.93;;;;;;;;;;5033960;28;20132;-81
2022/01/14 07:27:35;;;;;;;19.67;9.57;;;;;;;;;;5032743;28;20017;-79
2022/01/14 07:30:00;;;;;;;14.23;8.18;;;;;;;;;;5034400;28;20025;-82
2022/01/14 07:32:26;;;;;;;16.42;9.38;;;;;;;;;;5033660;28;20065;-81
2022/01/14 07:34:52;;;;;;;5.65;3.38;;;;;;;;;;5034069;28;20037;-83
2022/01/14 07:37:18;;;;;;;9.07;3.08;;;;;;;;;;5033389;28;20105;-82
2022/01/14 07:39:45;;;;;;;6.32;4.13;;;;;;;;;;5032893;28;20462;-82
2022/01/14 07:42:11;;;;;;;8.68;4.15;;;;;;;;;;5033396;28;20028;-81
2022/01/14 07:44:38;;;;;;;4.63;2.63;;;;;;;;;;5014292;28;20465;-81
2022/01/14 07:47:04;;;;;;;5.35;2.42;;;;;;;;;;5033635;28;20538;-80
2022/01/14 07:49:29;;;;;;;5.57;2.90;;;;;;;;;;5015885;28;20496;-82
2022/01/14 07:51:55;;;;;;;5.38;2.90;;;;;;;;;;5015079;28;20029;-84
2022/01/14 07:54:20;;;;;;;7.18;3.35;;;;;;;;;;5033300;28;20040;-81
2022/01/14 07:56:50;;;;;;;7.03;3.65;;;;;;;;;;5032964;28;20091;-82
2022/01/14 07:59:18;;;;;;;4.97;3.42;;;;;;;;;;5033005;28;20036;-83
2022/01/14 08:01:46;;;;;;;6.22;3.67;;;;;;;;;;5013011;28;20033;-82
2022/01/14 08:04:13;;;;;;;3.00;2.13;;;;;;;;;;5029709;28;20017;-81
2022/01/14 08:06:45;;;;;;;4.60;2.45;;;;;;;;;;5033165;28;20105;-81
2022/01/14 08:09:12;;;;;;;3.95;2.50;;;;;;;;;;5014802;28;20030;-81
2022/01/14 08:11:37;;;;;;;4.13;2.60;;;;;;;;;;5033140;28;20037;-81
2022/01/14 08:14:03;;;;;;;3.70;2.00;;;;;;;;;;5032224;28;20033;-84
2022/01/14 08:16:28;;;;;;;6.28;3.60;;;;;;;;;;5033105;28;20417;-83
2022/01/14 08:18:54;;;;;;;5.93;3.70;;;;;;;;;;5032583;28;20037;-82
2022/01/14 08:21:19;;;;;;;4.18;2.33;;;;;;;;;;5013842;28;20052;-83
2022/01/14 08:23:45;;;;;;;4.43;2.40;;;;;;;;;;5011840;28;20057;-81
2022/01/14 08:26:10;;;;;;;12.32;7.70;;;;;;;;;;5033414;28;20028;-82
2022/01/14 08:28:36;;;;;;;5.78;3.10;;;;;;;;;;5032270;28;20068;-81
2022/01/14 08:31:02;;;;;;;5.70;3.55;;;;;;;;;;5025414;28;20036;-83
2022/01/14 08:33:27;;;;;;;6.32;4.32;;;;;;;;;;5032581;28;20385;-83
2022/01/14 08:35:53;;;;;;;6.57;3.20;;;;;;;;;;5032413;28;20087;-82
2022/01/14 08:38:18;;;;;;;5.50;2.63;;;;;;;;;;5014484;28;20025;-81
2022/01/14 08:40:44;;;;;;;5.82;4.07;;;;;;;;;;5031040;28;20067;-81
2022/01/14 08:43:10;;;;;;;6.07;4.03;;;;;;;;;;5030812;28;20072;-81
2022/01/14 08:45:35;;;;;;;4.07;2.25;;;;;;;;;;5032581;28;20033;-84
2022/01/14 08:48:01;;;;;;;5.80;3.22;;;;;;;;;;5032251;28;20033;-82
2022/01/14 08:50:29;;;;;;;5.63;3.78;;;;;;;;;;5032434;28;20501;-83
2022/01/14 08:52:56;;;;;;;5.38;3.85;;;;;;;;;;5031992;28;20033;-82
2022/01/14 08:55:22;;;;;;;6.32;4.15;;;;;;;;;;5032146;28;20029;-81
2022/01/14 08:57:48;;;;;;;6.82;3.78;;;;;;;;;;5031784;28;20029;-82
2022/01/14 09:00:15;;;;;;;3.75;2.17;;;;;;;;;;5011559;28;20465;-82
2022/01/14 09:02:41;;;;;;;6.78;3.97;;;;;;;;;;5031968;28;20017;-83
2022/01/14 09:05:08;;;;;;;5.47;3.55;;;;;;;;;;5030505;28;20052;-82
2022/01/14 09:07:33;;;;;;;6.90;4.30;;;;;;;;;;5029637;28;20048;-85
2022/01/14 09:09:59;;;;;;;7.10;3.67;;;;;;;;;;5014181;28;20033;-82
2022/01/14 09:12:24;;;;;;;5.95;3.10;;;;;;;;;;5031926;28;20025;-82
2022/01/14 09:14:50;;;;;;;5.55;3.15;;;;;;;;;;5013582;28;20025;-83
2022/01/14 09:17:17;;;;;;;8.27;5.25;;;;;;;;;;5031804;28;20028;-84
2022/01/14 09:19:44;;;;;;;7.18;4.03;;;;;;;;;;5031999;28;20075;-80
2022/01/14 09:22:10;;;;;;;8.02;4.57;;;;;;;;;;5030462;28;20116;-83
2022/01/14 09:24:36;;;;;;;5.30;3.63;;;;;;;;;;5031716;28;20505;-82
2022/01/14 09:27:02;;;;;;;5.32;3.17;;;;;;;;;;5030215;28;20029;-84
2022/01/14 09:29:27;;;;;;;9.35;4.95;;;;;;;;;;5028816;28;20132;-83
2022/01/14 09:31:53;;;;;;;7.18;3.83;;;;;;;;;;5031212;28;20032;-84
2022/01/14 09:34:18;;;;;;;7.50;4.13;;;;;;;;;;5026487;28;20017;-81
2022/01/14 09:36:45;;;;;;;8.73;4.75;;;;;;;;;;5026598;28;20385;-83
2022/01/14 09:39:11;;;;;;;6.78;4.50;;;;;;;;;;5030749;28;20051;-84
2022/01/14 09:41:36;;;;;;;10.55;6.25;;;;;;;;;;5030912;28;20033;-83
2022/01/14 09:44:03;;;;;;;4.53;2.80;;;;;;;;;;5013745;28;20057;-82
2022/01/14 09:46:29;;;;;;;5.97;2.72;;;;;;;;;;5027114;28;20041;-83
2022/01/14 09:48:55;;;;;;;6.63;4.00;;;;;;;;;;5030991;28;20029;-82
2022/01/14 09:51:21;;;;;;;8.00;4.22;;;;;;;;;;5013668;28;20025;-85
2022/01/14 09:53:48;;;;;;;5.60;3.33;;;;;;;;;;5009091;28;20504;-83
2022/01/14 09:56:19;;;;;;;5.32;3.40;;;;;;;;;;5030855;28;20025;-84
2022/01/14 09:58:49;;;;;;;5.85;3.80;;;;;;;;;;5024388;28;20425;-81
2022/01/14 10:01:16;;;;;;;;;;;;;;;;;;5031716;28;20017;-83
2022/01/14 10:04:03;;;;;;;4.28;2.70;;;;;;;;;;5029636;28;19921;-81
2022/01/14 10:06:43;;;;;;;8.38;4.72;;;;;;;;;;5030996;28;20091;-84
2022/01/14 10:09:17;;;;;;;5.78;3.78;;;;;;;;;;5013920;28;20060;-82
2022/01/14 10:11:57;;;;;;;5.22;3.65;;;;;;;;;;5029957;28;20026;-83
2022/01/14 10:14:23;;;;;;;5.75;4.07;;;;;;;;;;5027803;28;20033;-82
2022/01/14 10:16:56;;;;;;;6.10;3.60;;;;;;;;;;5011754;28;20029;-81
2022/01/14 10:19:29;;;;;;;7.10;3.38;;;;;;;;;;5027552;28;20444;-84
2022/01/14 10:21:56;;;;;;;6.55;3.92;;;;;;;;;;5027877;28;20079;-82
2022/01/14 10:24:25;;;;;;;5.28;3.45;;;;;;;;;;5035774;28;20052;-82
2022/01/14 10:26:56;;;;;;;5.55;3.72;;;;;;;;;;5013509;28;20037;-82
2022/01/14 10:29:32;;;;;;;5.85;3.83;;;;;;;;;;5030876;28;20030;-81
2022/01/14 10:32:00;;;;;;;7.28;3.53;;;;;;;;;;5026631;28;20359;-82
2022/01/14 10:34:26;;;;;;;8.10;4.70;;;;;;;;;;5027728;28;20086;-83
2022/01/14 10:37:11;;;;;;;8.63;4.82;;;;;;;;;;5024073;28;20136;-80
2022/01/14 10:39:49;;;;;;;5.95;3.80;;;;;;;;;;5036634;28;20070;-83
2022/01/14 10:42:36;;;;;;;6.97;3.97;;;;;;;;;;5034557;28;20448;-81
2022/01/14 10:45:24;;;;;;;8.88;4.40;;;;;;;;;;5017274;28;20029;-85
2022/01/14 10:48:01;;;;;;;9.20;4.93;;;;;;;;;;5027931;28;20040;-82
2022/01/14 10:50:55;;;;;;;7.32;4.57;;;;;;;;;;5032643;28;20108;-84
2022/01/14 10:53:30;;;;;;;4.90;3.45;;;;;;;;;;5022355;28;20041;-85
2022/01/14 10:56:05;;;;;;;5.95;3.42;;;;;;;;;;5029230;28;20476;-84
2022/01/14 10:58:34;;;;;;;7.72;3.97;;;;;;;;;;5029233;28;20037;-83
2022/01/14 11:01:02;;;;;;;9.00;5.28;;;;;;;;;;5028626;28;20079;-84
2022/01/14 11:03:37;;;;;;;6.40;3.60;;;;;;;;;;5031125;28;20030;-83
2022/01/14 11:06:16;;;;;;;8.45;4.20;;;;;;;;;;5010135;28;20068;-86
2022/01/14 11:08:42;;;;;;;9.43;4.97;;;;;;;;;;5029772;28;20033;-82
2022/01/14 11:11:08;;;;;;;10.25;3.72;;;;;;;;;;5030881;28;20083;-84
2022/01/14 11:13:34;;;;;;;7.20;3.88;;;;;;;;;;5032413;28;20496;-84
2022/01/14 11:15:59;;;;;;;4.72;2.88;;;;;;;;;;5015587;28;20021;-83
2022/01/14 11:18:25;;;;;;;5.50;3.00;;;;;;;;;;5015558;28;20037;-83
2022/01/14 11:23:34;;;;;;;6.95;3.72;;;;;;;;;;5032707;28;20103;-85
2022/01/14 11:26:06;;;;;;;7.38;3.70;;;;;;;;;;5015136;28;20025;-83
2022/01/14 11:28:35;;;;;;;6.82;3.80;;;;;;;;;;5033512;28;20087;-82
2022/01/14 11:31:20;;;;;;;3.90;2.25;;;;;;;;;;5015454;28;20037;-84
2022/01/14 11:33:46;;;;;;;4.90;2.60;;;;;;;;;;5015332;28;20056;-82
2022/01/14 11:36:12;;;;;;;4.22;3.15;;;;;;;;;;5029334;28;20065;-82
2022/01/14 11:38:43;;;;;;;3.75;2.38;;;;;;;;;;5032684;28;20112;-83
2022/01/14 11:41:15;;;;;;;4.60;2.22;;;;;;;;;;5033091;28;20079;-82
2022/01/14 11:43:44;;;;;;;5.00;2.15;;;;;;;;;;5032257;28;20030;-84
2022/01/14 11:46:13;;;;;;;3.88;2.65;;;;;;;;;;5033616;28;20069;-81
2022/01/14 11:48:49;;;;;;;3.57;2.37;;;;;;;;;;5012902;28;20033;-84
2022/01/14 11:51:17;;;;;;;5.50;2.45;;;;;;;;;;5028450;28;20336;-83
2022/01/14 11:53:49;;;;;;;3.45;2.25;;;;;;;;;;5031416;28;20036;-83
2022/01/14 11:56:30;;;;;;;3.72;2.70;;;;;;;;;;5022301;28;20021;-83
2022/01/14 11:59:18;;;;;;;3.60;2.33;;;;;;;;;;5015595;28;20029;-85
2022/01/14 12:01:48;;;;;;;4.85;2.25;;;;;;;;;;5032632;28;20432;-83
2022/01/14 12:04:14;;;;;;;3.03;1.83;;;;;;;;;;5032285;28;20063;-82
2022/01/14 12:06:54;;;;;;;3.53;1.80;;;;;;;;;;5015935;28;20049;-87
2022/01/14 12:09:24;;;;;;;5.20;2.50;;;;;;;;;;5014003;28;20504;-83
2022/01/14 12:12:30;;;;;;;3.97;2.00;;;;;;;;;;5029456;28;20045;-82
2022/01/14 12:14:58;;;;;;;3.13;1.88;;;;;;;;;;5032423;28;20028;-82
2022/01/14 12:17:37;;;;;;;4.18;2.45;;;;;;;;;;5032785;28;20068;-82
2022/01/14 12:20:10;;;;;;;3.55;1.70;;;;;;;;;;5014800;28;20045;-82
2022/01/14 12:22:37;;;;;;;3.83;2.08;;;;;;;;;;5014997;28;20057;-84
2022/01/14 12:25:03;;;;;;;6.05;2.10;;;;;;;;;;5032900;28;20024;-83
2022/01/14 12:27:36;;;;;;;4.95;2.20;;;;;;;;;;5032607;28;20022;-81
2022/01/14 12:30:06;;;;;;;3.08;1.77;;;;;;;;;;5032640;28;20043;-79
2022/01/14 12:32:36;;;;;;;;;;;;;;;;;;5033409;28;20444;-82
2022/01/14 12:35:10;;;;;;;3.53;2.25;;;;;;;;;;5032767;28;19940;-82
2022/01/14 12:37:46;;;;;;;2.65;1.70;;;;;;;;;;5033046;28;20037;-83
2022/01/14 12:40:19;;;;;;;3.45;2.30;;;;;;;;;;5032829;28;20036;-84
2022/01/14 12:43:06;;;;;;;3.45;1.95;;;;;;;;;;5014743;28;20083;-83
2022/01/14 12:45:36;;;;;;;3.90;2.13;;;;;;;;;;5031881;28;20065;-83
2022/01/14 12:48:13;;;;;;;;;;;;;;;;;;5015541;28;20138;-84
2022/01/14 12:50:38;;;;;;;3.85;2.55;;;;;;;;;;5014961;28;19913;-82
2022/01/14 12:53:04;;;;;;;4.68;2.90;;;;;;;;;;5032479;28;20040;-83
2022/01/14 12:55:34;;;;;;;6.55;3.13;;;;;;;;;;5032851;28;20033;-82
2022/01/14 12:58:00;;;;;;;6.25;2.80;;;;;;;;;;5032565;28;20045;-80
2022/01/14 13:00:26;;;;;;;4.05;1.98;;;;;;;;;;5014638;28;20064;-83
2022/01/14 13:02:53;;;;;;;4.15;2.20;;;;;;;;;;5032567;28;20514;-83
2022/01/14 13:05:24;;;;;;;4.93;2.40;;;;;;;;;;5030862;28;20029;-85
2022/01/14 13:07:49;;;;;;;6.15;2.80;;;;;;;;;;5014907;28;20033;-84
2022/01/14 13:10:17;;;;;;;7.40;3.72;;;;;;;;;;5014680;28;20086;-83
2022/01/14 13:12:44;;;;;;;4.72;2.60;;;;;;;;;;5014436;28;20037;-84
2022/01/14 13:15:18;;;;;;;4.30;2.60;;;;;;;;;;5031787;28;20426;-85
2022/01/14 13:18:09;;;;;;;4.90;2.78;;;;;;;;;;5031794;28;20026;-85
2022/01/14 13:20:35;;;;;;;15.25;9.88;;;;;;;;;;5032183;28;20707;-83
2022/01/14 13:23:02;;;;;;;8.02;3.17;;;;;;;;;;5010673;28;20045;-84
2022/01/14 13:25:33;;;;;;;4.53;2.50;;;;;;;;;;4994874;28;20037;-84
2022/01/14 13:28:01;;;;;;;5.53;2.72;;;;;;;;;;4994405;28;20037;-83
2022/01/14 13:30:37;;;;;;;5.85;3.72;;;;;;;;;;5012275;28;20029;-81
2022/01/14 13:33:14;;;;;;;5.57;3.17;;;;;;;;;;5012024;28;20412;-83
2022/01/14 13:35:40;;;;;;;6.00;3.35;;;;;;;;;;5006808;28;20029;-86
2022/01/14 13:38:12;;;;;;;9.07;4.82;;;;;;;;;;5012148;28;20087;-84
2022/01/14 13:40:48;;;;;;;5.68;2.20;;;;;;;;;;5012178;28;20167;-85
2022/01/14 13:43:25;;;;;;;4.20;2.17;;;;;;;;;;4994556;28;20022;-86
2022/01/14 13:46:02;;;;;;;5.18;2.63;;;;;;;;;;5011977;28;20025;-84
2022/01/14 13:48:28;;;;;;;10.45;5.07;;;;;;;;;;4994098;28;20427;-83
2022/01/14 13:51:03;;;;;;;7.63;4.30;;;;;;;;;;5012025;28;20032;-84
2022/01/14 13:53:35;;;;;;;6.22;3.35;;;;;;;;;;4995677;28;20091;-84
2022/01/14 13:56:10;;;;;;;9.07;5.03;;;;;;;;;;5012050;28;20502;-85
2022/01/14 13:58:37;;;;;;;6.88;3.72;;;;;;;;;;4994320;28;20029;-84
2022/01/14 14:01:06;;;;;;;7.13;4.40;;;;;;;;;;5011725;28;20428;-84
2022/01/14 14:03:45;;;;;;;9.13;4.63;;;;;;;;;;4994104;28;20677;-85
2022/01/14 14:06:16;;;;;;;9.80;4.25;;;;;;;;;;5010614;28;20041;-85
2022/01/14 14:09:11;;;;;;;3.47;2.30;;;;;;;;;;5010527;28;20482;-83
2022/01/14 14:17:16;;;;;;;2.90;2.00;;;;;;;;;;5015907;28;20040;-83
2022/01/14 14:19:46;;;;;;;4.63;2.22;;;;;;;;;;5010771;28;20042;-84
2022/01/14 14:22:26;;;;;;;4.13;2.15;;;;;;;;;;4998100;28;20030;-86
2022/01/14 14:25:04;;;;;;;4.03;2.58;;;;;;;;;;5017566;28;20036;-85
2022/01/14 14:27:31;;;;;;;4.63;2.00;;;;;;;;;;5017522;28;20083;-84
2022/01/14 14:29:59;;;;;;;3.38;1.65;;;;;;;;;;5035416;28;20029;-86
2022/01/14 14:32:27;;;;;;;3.83;1.98;;;;;;;;;;5035370;28;20022;-84
2022/01/14 14:34:58;;;;;;;2.97;1.65;;;;;;;;;;5035350;28;20034;-83
2022/01/14 14:37:25;;;;;;;3.22;2.20;;;;;;;;;;5035405;28;20377;-83
2022/01/14 14:39:51;;;;;;;4.05;1.98;;;;;;;;;;5017030;28;20053;-81
2022/01/14 14:42:17;;;;;;;4.10;2.63;;;;;;;;;;5034920;28;20779;-81
2022/01/14 14:44:42;;;;;;;3.60;2.20;;;;;;;;;;5034956;28;20025;-85
2022/01/14 14:47:11;;;;;;;6.88;3.92;;;;;;;;;;5016996;28;20037;-84
2022/01/14 14:49:37;;;;;;;3.38;1.85;;;;;;;;;;5017304;28;20056;-83
2022/01/14 14:52:03;;;;;;;4.50;2.30;;;;;;;;;;5034885;28;20025;-84
2022/01/14 14:54:29;;;;;;;3.15;1.90;;;;;;;;;;5034942;28;20396;-84
2022/01/14 14:56:54;;;;;;;3.10;2.30;;;;;;;;;;5032797;28;20034;-83
2022/01/14 14:59:20;;;;;;;3.85;2.40;;;;;;;;;;5034284;28;20040;-83
2022/01/14 15:01:45;;;;;;;5.30;3.65;;;;;;;;;;5042254;28;20696;-84
2022/01/14 15:04:11;;;;;;;4.10;2.20;;;;;;;;;;5016540;28;20101;-86
2022/01/14 15:06:37;;;;;;;3.58;2.15;;;;;;;;;;5016162;28;20033;-84
2022/01/14 15:09:03;;;;;;;2.20;1.50;;;;;;;;;;5031175;28;20025;-83
2022/01/14 15:11:29;;;;;;;4.65;2.67;;;;;;;;;;5033959;28;20026;-85
2022/01/14 15:13:54;;;;;;;6.07;3.17;;;;;;;;;;5017304;28;20350;-84
2022/01/14 15:18:45;;;;;;;3.28;1.95;;;;;;;;;;5031257;28;20037;-85
2022/01/14 15:21:11;;;;;;;4.85;3.03;;;;;;;;;;5033336;28;20132;-86
2022/01/14 15:23:36;;;;;;;6.57;4.00;;;;;;;;;;5032977;28;20045;-86